Skip Navigation LinksHome page > Weather > Current weather Skip Navigation Links

Current Weather

Central Park, New York

For information only: do not use for flight planning or navigation.
Latest weather
Observation time Saturday, August 29, 2015 1:51 AM EDT
Local time Saturday, August 29, 2015 2:04 AM EDT
Flight conditions Visual Meteorological Conditions
Winds
Wind speed calm
Visibility 10 mi.
Sky condition
Ceiling unlimited
Sky clear
Temperature 70°F
Dewpoint 52°F
Altimeter 30.21 in.Hg
Pressure change last 3 hours0.01 in.Hg
Pressure falling more quickly
Derived measurements
Relative humidity 53%
Density altitude 728 ft.
Sea-level pressure 30.18 in.Hg
Climate data
Temperature minimum, last 6 hours 68°F
Temperature maximum, last 6 hours 77°F
Remarks
System requires maintenance.
Automated weather observing station with precipitation discriminator.
METAR KNYC 290551Z 00000KT 10SM CLR 21/11 A3021 RMK AO2 SLP221 T02110111 10250 20200 58004 $

Settings

Location code

InnerDrive.Weather 4.0.5567.0 Release CLR 4.0.30319.34014
Copyright ©2015 Inner Drive Technology. All rights reserved. Portions Copyright ©1986-2015 David Braverman.

Find weather

Site navigation


Skip Navigation Links

Place info

Page info

PayPal - The safer, easier way to pay online!

Return home.

Copyright ©2015 Inner Drive Technology. Purveyors of fine, hand-crafted computer software. Page printed 2015-08-29T06:04:51 UTC.